sensor_id;sensor_type;location;lat;lon;timestamp;temperature;humidity
22288;DHT22;11312;51.464;6.968;2023-03-14T00:02:22;11.30;99.90
22288;DHT22;11312;51.464;6.968;2023-03-14T00:04:48;11.20;99.90
22288;DHT22;11312;51.464;6.968;2023-03-14T00:07:14;11.30;99.90
22288;DHT22;11312;51.464;6.968;2023-03-14T00:09:40;11.40;99.90
22288;DHT22;11312;51.464;6.968;2023-03-14T00:12:06;11.40;99.90
22288;DHT22;11312;51.464;6.968;2023-03-14T00:14:32;11.40;99.90
22288;DHT22;11312;51.464;6.968;2023-03-14T00:16:58;11.50;99.90
22288;DHT22;11312;51.464;6.968;2023-03-14T00:19:24;11.60;99.90
22288;DHT22;11312;51.464;6.968;2023-03-14T00:21:49;11.60;99.90
22288;DHT22;11312;51.464;6.968;2023-03-14T00:24:15;11.70;99.90
22288;DHT22;11312;51.464;6.968;2023-03-14T00:26:41;11.70;99.90
22288;DHT22;11312;51.464;6.968;2023-03-14T00:29:06;11.70;99.90
22288;DHT22;11312;51.464;6.968;2023-03-14T00:31:32;11.60;99.90
22288;DHT22;11312;51.464;6.968;2023-03-14T00:33:58;11.50;99.90
22288;DHT22;11312;51.464;6.968;2023-03-14T00:36:23;11.70;99.90
22288;DHT22;11312;51.464;6.968;2023-03-14T00:38:50;11.80;99.90
22288;DHT22;11312;51.464;6.968;2023-03-14T00:41:21;11.90;99.90
22288;DHT22;11312;51.464;6.968;2023-03-14T00:43:48;11.80;99.90
22288;DHT22;11312;51.464;6.968;2023-03-14T00:46:14;11.90;99.90
22288;DHT22;11312;51.464;6.968;2023-03-14T00:48:39;11.60;99.90
22288;DHT22;11312;51.464;6.968;2023-03-14T00:51:07;11.10;99.90
22288;DHT22;11312;51.464;6.968;2023-03-14T00:53:36;10.80;99.90
22288;DHT22;11312;51.464;6.968;2023-03-14T00:56:07;10.30;99.90
22288;DHT22;11312;51.464;6.968;2023-03-14T00:58:33;10.30;99.90
22288;DHT22;11312;51.464;6.968;2023-03-14T01:00:59;9.90;99.90
22288;DHT22;11312;51.464;6.968;2023-03-14T01:03:24;10.10;99.90
22288;DHT22;11312;51.464;6.968;2023-03-14T01:05:50;10.10;99.90
22288;DHT22;11312;51.464;6.968;2023-03-14T01:08:16;10.00;99.90
22288;DHT22;11312;51.464;6.968;2023-03-14T01:10:41;10.00;99.90
22288;DHT22;11312;51.464;6.968;2023-03-14T01:13:08;10.10;99.90
22288;DHT22;11312;51.464;6.968;2023-03-14T01:15:35;10.00;99.90
22288;DHT22;11312;51.464;6.968;2023-03-14T01:18:01;10.00;99.90
22288;DHT22;11312;51.464;6.968;2023-03-14T01:20:27;9.90;99.90
22288;DHT22;11312;51.464;6.968;2023-03-14T01:22:53;9.80;99.90
22288;DHT22;11312;51.464;6.968;2023-03-14T01:25:18;9.80;99.90
22288;DHT22;11312;51.464;6.968;2023-03-14T01:27:44;9.80;99.90
22288;DHT22;11312;51.464;6.968;2023-03-14T01:30:11;9.80;99.90
22288;DHT22;11312;51.464;6.968;2023-03-14T01:32:38;9.80;99.90
22288;DHT22;11312;51.464;6.968;2023-03-14T01:35:04;9.80;99.90
22288;DHT22;11312;51.464;6.968;2023-03-14T01:37:30;9.80;99.90
22288;DHT22;11312;51.464;6.968;2023-03-14T01:39:55;9.80;99.90
22288;DHT22;11312;51.464;6.968;2023-03-14T01:42:21;9.80;99.90
22288;DHT22;11312;51.464;6.968;2023-03-14T01:44:58;9.70;99.90
22288;DHT22;11312;51.464;6.968;2023-03-14T01:47:24;9.70;99.90
22288;DHT22;11312;51.464;6.968;2023-03-14T01:49:56;9.70;99.90
22288;DHT22;11312;51.464;6.968;2023-03-14T01:52:46;9.80;99.90
22288;DHT22;11312;51.464;6.968;2023-03-14T01:55:16;9.70;99.90
22288;DHT22;11312;51.464;6.968;2023-03-14T01:57:54;9.80;99.90
22288;DHT22;11312;51.464;6.968;2023-03-14T02:00:22;9.70;99.90
22288;DHT22;11312;51.464;6.968;2023-03-14T02:03:05;9.80;99.90
22288;DHT22;11312;51.464;6.968;2023-03-14T02:05:35;9.70;99.90
22288;DHT22;11312;51.464;6.968;2023-03-14T02:08:06;9.70;99.90
22288;DHT22;11312;51.464;6.968;2023-03-14T02:10:38;9.80;99.90
22288;DHT22;11312;51.464;6.968;2023-03-14T02:13:05;9.80;99.90
22288;DHT22;11312;51.464;6.968;2023-03-14T02:15:32;9.80;99.90
22288;DHT22;11312;51.464;6.968;2023-03-14T02:17:58;9.80;99.90
22288;DHT22;11312;51.464;6.968;2023-03-14T02:22:57;9.80;99.90
22288;DHT22;11312;51.464;6.968;2023-03-14T02:28:09;9.80;99.90
22288;DHT22;11312;51.464;6.968;2023-03-14T02:30:35;9.70;99.90
22288;DHT22;11312;51.464;6.968;2023-03-14T02:33:03;9.80;99.90
22288;DHT22;11312;51.464;6.968;2023-03-14T02:35:42;9.80;99.90
22288;DHT22;11312;51.464;6.968;2023-03-14T02:38:20;9.80;99.90
22288;DHT22;11312;51.464;6.968;2023-03-14T02:40:48;9.90;99.90
22288;DHT22;11312;51.464;6.968;2023-03-14T02:43:14;9.90;99.90
22288;DHT22;11312;51.464;6.968;2023-03-14T02:45:45;9.90;99.90
22288;DHT22;11312;51.464;6.968;2023-03-14T02:48:35;9.90;99.90
22288;DHT22;11312;51.464;6.968;2023-03-14T02:51:01;9.90;99.90
22288;DHT22;11312;51.464;6.968;2023-03-14T02:53:30;10.00;99.90
22288;DHT22;11312;51.464;6.968;2023-03-14T02:55:57;10.00;99.90
22288;DHT22;11312;51.464;6.968;2023-03-14T02:58:23;10.00;99.90
22288;DHT22;11312;51.464;6.968;2023-03-14T03:00:48;10.00;99.90
22288;DHT22;11312;51.464;6.968;2023-03-14T03:03:14;9.90;99.90
22288;DHT22;11312;51.464;6.968;2023-03-14T03:05:39;9.90;99.90
22288;DHT22;11312;51.464;6.968;2023-03-14T03:08:05;9.80;99.90
22288;DHT22;11312;51.464;6.968;2023-03-14T03:10:31;9.80;99.90
22288;DHT22;11312;51.464;6.968;2023-03-14T03:12:57;9.80;99.90
22288;DHT22;11312;51.464;6.968;2023-03-14T03:15:24;9.90;99.90
22288;DHT22;11312;51.464;6.968;2023-03-14T03:17:50;9.80;99.90
22288;DHT22;11312;51.464;6.968;2023-03-14T03:20:15;9.80;99.90
22288;DHT22;11312;51.464;6.968;2023-03-14T03:22:41;9.90;99.90
22288;DHT22;11312;51.464;6.968;2023-03-14T03:25:08;10.00;99.90
22288;DHT22;11312;51.464;6.968;2023-03-14T03:27:35;9.90;99.90
22288;DHT22;11312;51.464;6.968;2023-03-14T03:30:03;10.00;99.90
22288;DHT22;11312;51.464;6.968;2023-03-14T03:32:29;9.90;99.90
22288;DHT22;11312;51.464;6.968;2023-03-14T03:34:55;10.00;99.90
22288;DHT22;11312;51.464;6.968;2023-03-14T03:37:20;10.00;99.90
22288;DHT22;11312;51.464;6.968;2023-03-14T03:39:46;9.90;99.90
22288;DHT22;11312;51.464;6.968;2023-03-14T03:42:11;9.90;99.90
22288;DHT22;11312;51.464;6.968;2023-03-14T03:44:37;9.90;99.90
22288;DHT22;11312;51.464;6.968;2023-03-14T03:47:03;9.90;99.90
22288;DHT22;11312;51.464;6.968;2023-03-14T03:49:32;10.00;99.90
22288;DHT22;11312;51.464;6.968;2023-03-14T03:51:58;9.90;99.90
22288;DHT22;11312;51.464;6.968;2023-03-14T03:54:24;9.80;99.90
22288;DHT22;11312;51.464;6.968;2023-03-14T03:56:50;9.70;99.90
22288;DHT22;11312;51.464;6.968;2023-03-14T03:59:15;9.70;99.90
22288;DHT22;11312;51.464;6.968;2023-03-14T04:01:41;9.60;99.90
22288;DHT22;11312;51.464;6.968;2023-03-14T04:04:06;9.40;99.90
22288;DHT22;11312;51.464;6.968;2023-03-14T04:06:32;9.50;99.90
22288;DHT22;11312;51.464;6.968;2023-03-14T04:08:58;9.50;99.90
22288;DHT22;11312;51.464;6.968;2023-03-14T04:11:24;9.50;99.90
22288;DHT22;11312;51.464;6.968;2023-03-14T04:13:49;9.50;99.90
22288;DHT22;11312;51.464;6.968;2023-03-14T04:16:18;9.50;99.90
22288;DHT22;11312;51.464;6.968;2023-03-14T04:18:44;9.60;99.90
22288;DHT22;11312;51.464;6.968;2023-03-14T04:21:10;9.60;99.90
22288;DHT22;11312;51.464;6.968;2023-03-14T04:23:35;9.60;99.90
22288;DHT22;11312;51.464;6.968;2023-03-14T04:26:02;9.50;99.90
22288;DHT22;11312;51.464;6.968;2023-03-14T04:28:27;9.50;99.90
22288;DHT22;11312;51.464;6.968;2023-03-14T04:30:53;9.30;99.90
22288;DHT22;11312;51.464;6.968;2023-03-14T04:33:19;9.10;99.90
22288;DHT22;11312;51.464;6.968;2023-03-14T04:35:45;9.10;99.90
22288;DHT22;11312;51.464;6.968;2023-03-14T04:38:11;9.00;99.90
22288;DHT22;11312;51.464;6.968;2023-03-14T04:40:40;9.00;99.90
22288;DHT22;11312;51.464;6.968;2023-03-14T04:43:07;8.90;99.90
22288;DHT22;11312;51.464;6.968;2023-03-14T04:45:33;8.90;99.90
22288;DHT22;11312;51.464;6.968;2023-03-14T04:47:59;8.90;99.90
22288;DHT22;11312;51.464;6.968;2023-03-14T04:50:25;8.80;99.90
22288;DHT22;11312;51.464;6.968;2023-03-14T04:52:50;8.70;99.90
22288;DHT22;11312;51.464;6.968;2023-03-14T04:55:16;8.70;99.90
22288;DHT22;11312;51.464;6.968;2023-03-14T04:57:41;8.90;99.90
22288;DHT22;11312;51.464;6.968;2023-03-14T05:00:07;8.70;99.90
22288;DHT22;11312;51.464;6.968;2023-03-14T05:02:34;8.70;99.90
22288;DHT22;11312;51.464;6.968;2023-03-14T05:05:00;8.70;99.90
22288;DHT22;11312;51.464;6.968;2023-03-14T05:07:25;8.60;99.90
22288;DHT22;11312;51.464;6.968;2023-03-14T05:09:51;8.60;99.90
22288;DHT22;11312;51.464;6.968;2023-03-14T05:12:19;8.60;99.90
22288;DHT22;11312;51.464;6.968;2023-03-14T05:14:45;8.60;99.90
22288;DHT22;11312;51.464;6.968;2023-03-14T05:17:11;8.70;99.90
22288;DHT22;11312;51.464;6.968;2023-03-14T05:19:40;8.70;99.90
22288;DHT22;11312;51.464;6.968;2023-03-14T05:22:06;8.60;99.90
22288;DHT22;11312;51.464;6.968;2023-03-14T05:24:32;8.50;99.90
22288;DHT22;11312;51.464;6.968;2023-03-14T05:26:58;8.50;99.90
22288;DHT22;11312;51.464;6.968;2023-03-14T05:29:23;8.50;99.90
22288;DHT22;11312;51.464;6.968;2023-03-14T05:31:49;8.60;99.90
22288;DHT22;11312;51.464;6.968;2023-03-14T05:34:15;8.60;99.90
22288;DHT22;11312;51.464;6.968;2023-03-14T05:36:40;8.60;99.90
22288;DHT22;11312;51.464;6.968;2023-03-14T05:39:06;8.60;99.90
22288;DHT22;11312;51.464;6.968;2023-03-14T05:41:32;8.60;99.90
22288;DHT22;11312;51.464;6.968;2023-03-14T05:43:57;8.50;99.90
22288;DHT22;11312;51.464;6.968;2023-03-14T05:46:23;8.60;99.90
22288;DHT22;11312;51.464;6.968;2023-03-14T05:48:49;8.60;99.90
22288;DHT22;11312;51.464;6.968;2023-03-14T05:51:14;8.60;99.90
22288;DHT22;11312;51.464;6.968;2023-03-14T05:53:40;8.60;99.90
22288;DHT22;11312;51.464;6.968;2023-03-14T05:56:06;8.70;99.90
22288;DHT22;11312;51.464;6.968;2023-03-14T05:58:32;8.70;99.90
22288;DHT22;11312;51.464;6.968;2023-03-14T06:00:59;8.70;99.90
22288;DHT22;11312;51.464;6.968;2023-03-14T06:03:26;8.80;99.90
22288;DHT22;11312;51.464;6.968;2023-03-14T06:05:52;8.70;99.90
22288;DHT22;11312;51.464;6.968;2023-03-14T06:08:17;8.70;99.90
22288;DHT22;11312;51.464;6.968;2023-03-14T06:10:43;8.80;99.90
22288;DHT22;11312;51.464;6.968;2023-03-14T06:13:09;8.80;99.90
22288;DHT22;11312;51.464;6.968;2023-03-14T06:15:34;8.80;99.90
22288;DHT22;11312;51.464;6.968;2023-03-14T06:18:01;8.80;99.90
22288;DHT22;11312;51.464;6.968;2023-03-14T06:20:27;8.80;99.90
22288;DHT22;11312;51.464;6.968;2023-03-14T06:22:52;8.80;99.90
22288;DHT22;11312;51.464;6.968;2023-03-14T06:25:18;8.90;99.90
22288;DHT22;11312;51.464;6.968;2023-03-14T06:27:43;9.00;99.90
22288;DHT22;11312;51.464;6.968;2023-03-14T06:30:10;9.00;99.90
22288;DHT22;11312;51.464;6.968;2023-03-14T06:32:35;9.00;99.90
22288;DHT22;11312;51.464;6.968;2023-03-14T06:35:01;9.20;99.90
22288;DHT22;11312;51.464;6.968;2023-03-14T06:37:28;9.10;99.90
22288;DHT22;11312;51.464;6.968;2023-03-14T06:39:55;9.20;99.90
22288;DHT22;11312;51.464;6.968;2023-03-14T06:42:21;9.20;99.90
22288;DHT22;11312;51.464;6.968;2023-03-14T06:44:46;9.20;99.90
22288;DHT22;11312;51.464;6.968;2023-03-14T06:47:12;9.30;99.90
22288;DHT22;11312;51.464;6.968;2023-03-14T06:49:38;9.30;99.90
22288;DHT22;11312;51.464;6.968;2023-03-14T06:52:03;9.40;99.90
22288;DHT22;11312;51.464;6.968;2023-03-14T06:54:29;9.40;99.90
22288;DHT22;11312;51.464;6.968;2023-03-14T06:56:55;9.30;99.90
22288;DHT22;11312;51.464;6.968;2023-03-14T06:59:20;9.50;99.90
22288;DHT22;11312;51.464;6.968;2023-03-14T07:01:46;9.40;99.90
22288;DHT22;11312;51.464;6.968;2023-03-14T07:04:13;9.60;99.90
22288;DHT22;11312;51.464;6.968;2023-03-14T07:06:39;9.60;99.90
22288;DHT22;11312;51.464;6.968;2023-03-14T07:09:12;9.40;99.90
22288;DHT22;11312;51.464;6.968;2023-03-14T07:11:38;9.60;99.90
22288;DHT22;11312;51.464;6.968;2023-03-14T07:14:04;9.70;99.90
22288;DHT22;11312;51.464;6.968;2023-03-14T07:16:30;9.60;99.90
22288;DHT22;11312;51.464;6.968;2023-03-14T07:18:59;9.60;99.90
22288;DHT22;11312;51.464;6.968;2023-03-14T07:21:25;9.60;99.90
22288;DHT22;11312;51.464;6.968;2023-03-14T07:23:51;9.70;99.90
22288;DHT22;11312;51.464;6.968;2023-03-14T07:26:16;9.70;99.90
22288;DHT22;11312;51.464;6.968;2023-03-14T07:28:42;9.80;99.90
22288;DHT22;11312;51.464;6.968;2023-03-14T07:31:08;9.90;99.90
22288;DHT22;11312;51.464;6.968;2023-03-14T07:33:34;10.10;99.90
22288;DHT22;11312;51.464;6.968;2023-03-14T07:36:00;10.20;99.90
22288;DHT22;11312;51.464;6.968;2023-03-14T07:38:26;10.20;99.90
22288;DHT22;11312;51.464;6.968;2023-03-14T07:41:01;10.10;99.90
22288;DHT22;11312;51.464;6.968;2023-03-14T07:43:27;10.20;99.90
22288;DHT22;11312;51.464;6.968;2023-03-14T07:45:53;10.30;99.90
22288;DHT22;11312;51.464;6.968;2023-03-14T07:48:19;10.20;99.90
22288;DHT22;11312;51.464;6.968;2023-03-14T07:50:48;10.10;99.90
22288;DHT22;11312;51.464;6.968;2023-03-14T07:53:15;10.10;99.90
22288;DHT22;11312;51.464;6.968;2023-03-14T07:55:40;10.10;99.90
22288;DHT22;11312;51.464;6.968;2023-03-14T07:58:06;10.20;99.90
22288;DHT22;11312;51.464;6.968;2023-03-14T08:00:32;10.10;99.90
22288;DHT22;11312;51.464;6.968;2023-03-14T08:02:58;10.00;99.90
22288;DHT22;11312;51.464;6.968;2023-03-14T08:05:23;10.00;99.90
22288;DHT22;11312;51.464;6.968;2023-03-14T08:07:49;10.00;99.90
22288;DHT22;11312;51.464;6.968;2023-03-14T08:10:15;10.20;99.90
22288;DHT22;11312;51.464;6.968;2023-03-14T08:12:54;10.30;99.90
22288;DHT22;11312;51.464;6.968;2023-03-14T08:15:20;10.20;99.90
22288;DHT22;11312;51.464;6.968;2023-03-14T08:17:46;10.10;99.90
22288;DHT22;11312;51.464;6.968;2023-03-14T08:20:20;10.00;99.90
22288;DHT22;11312;51.464;6.968;2023-03-14T08:22:46;10.00;99.90
22288;DHT22;11312;51.464;6.968;2023-03-14T08:25:11;10.10;99.90
22288;DHT22;11312;51.464;6.968;2023-03-14T08:27:37;10.00;99.90
22288;DHT22;11312;51.464;6.968;2023-03-14T08:30:09;10.20;99.90
22288;DHT22;11312;51.464;6.968;2023-03-14T08:32:35;10.30;99.90
22288;DHT22;11312;51.464;6.968;2023-03-14T08:35:00;10.70;99.90
22288;DHT22;11312;51.464;6.968;2023-03-14T08:37:26;10.90;99.90
22288;DHT22;11312;51.464;6.968;2023-03-14T08:39:53;11.10;99.90
22288;DHT22;11312;51.464;6.968;2023-03-14T08:42:18;11.30;99.90
22288;DHT22;11312;51.464;6.968;2023-03-14T08:44:44;11.10;99.90
22288;DHT22;11312;51.464;6.968;2023-03-14T08:47:10;11.00;99.90
22288;DHT22;11312;51.464;6.968;2023-03-14T08:49:36;10.90;99.90
22288;DHT22;11312;51.464;6.968;2023-03-14T08:52:03;10.70;99.90
22288;DHT22;11312;51.464;6.968;2023-03-14T08:54:29;10.60;99.90
22288;DHT22;11312;51.464;6.968;2023-03-14T08:56:55;10.40;99.90
22288;DHT22;11312;51.464;6.968;2023-03-14T08:59:21;10.50;99.90
22288;DHT22;11312;51.464;6.968;2023-03-14T09:01:47;10.40;99.90
22288;DHT22;11312;51.464;6.968;2023-03-14T09:04:13;10.40;99.90
22288;DHT22;11312;51.464;6.968;2023-03-14T09:06:39;10.40;99.90
22288;DHT22;11312;51.464;6.968;2023-03-14T09:09:05;10.50;99.90
22288;DHT22;11312;51.464;6.968;2023-03-14T09:11:31;10.30;99.90
22288;DHT22;11312;51.464;6.968;2023-03-14T09:13:57;10.30;99.90
22288;DHT22;11312;51.464;6.968;2023-03-14T09:16:22;10.20;99.90
22288;DHT22;11312;51.464;6.968;2023-03-14T09:18:48;10.10;99.90
22288;DHT22;11312;51.464;6.968;2023-03-14T09:21:14;10.20;99.90
22288;DHT22;11312;51.464;6.968;2023-03-14T09:23:41;10.00;99.90
22288;DHT22;11312;51.464;6.968;2023-03-14T09:26:06;9.70;99.90
22288;DHT22;11312;51.464;6.968;2023-03-14T09:28:32;9.70;99.90
22288;DHT22;11312;51.464;6.968;2023-03-14T09:30:58;9.60;99.90
22288;DHT22;11312;51.464;6.968;2023-03-14T09:33:30;9.60;99.90
22288;DHT22;11312;51.464;6.968;2023-03-14T09:35:58;9.50;99.90
22288;DHT22;11312;51.464;6.968;2023-03-14T09:38:25;9.50;99.90
22288;DHT22;11312;51.464;6.968;2023-03-14T09:40:52;9.40;99.90
22288;DHT22;11312;51.464;6.968;2023-03-14T09:43:19;9.30;99.90
22288;DHT22;11312;51.464;6.968;2023-03-14T09:45:48;9.30;99.90
22288;DHT22;11312;51.464;6.968;2023-03-14T09:48:22;9.40;99.90
22288;DHT22;11312;51.464;6.968;2023-03-14T09:50:51;9.40;99.90
22288;DHT22;11312;51.464;6.968;2023-03-14T09:53:28;9.40;99.90
22288;DHT22;11312;51.464;6.968;2023-03-14T09:55:57;9.20;99.90
22288;DHT22;11312;51.464;6.968;2023-03-14T09:58:24;9.20;99.90
22288;DHT22;11312;51.464;6.968;2023-03-14T10:00:53;8.90;99.90
22288;DHT22;11312;51.464;6.968;2023-03-14T10:03:29;9.00;99.90
22288;DHT22;11312;51.464;6.968;2023-03-14T10:05:55;8.90;99.90
22288;DHT22;11312;51.464;6.968;2023-03-14T10:08:21;8.80;99.90
22288;DHT22;11312;51.464;6.968;2023-03-14T10:10:47;8.80;99.90
22288;DHT22;11312;51.464;6.968;2023-03-14T10:13:24;8.70;99.90
22288;DHT22;11312;51.464;6.968;2023-03-14T10:15:54;8.60;99.90
22288;DHT22;11312;51.464;6.968;2023-03-14T10:18:22;8.50;99.90
22288;DHT22;11312;51.464;6.968;2023-03-14T10:20:51;8.70;99.90
22288;DHT22;11312;51.464;6.968;2023-03-14T10:23:29;8.70;99.90
22288;DHT22;11312;51.464;6.968;2023-03-14T10:26:24;9.00;99.90
22288;DHT22;11312;51.464;6.968;2023-03-14T10:29:01;8.90;99.90
22288;DHT22;11312;51.464;6.968;2023-03-14T10:31:27;8.80;99.90
22288;DHT22;11312;51.464;6.968;2023-03-14T10:34:02;8.70;99.90
22288;DHT22;11312;51.464;6.968;2023-03-14T10:36:30;8.70;99.90
22288;DHT22;11312;51.464;6.968;2023-03-14T10:41:52;8.40;99.90
22288;DHT22;11312;51.464;6.968;2023-03-14T10:44:23;8.50;99.90
22288;DHT22;11312;51.464;6.968;2023-03-14T10:47:00;8.50;99.90
22288;DHT22;11312;51.464;6.968;2023-03-14T10:49:29;8.40;99.90
22288;DHT22;11312;51.464;6.968;2023-03-14T10:51:55;8.50;99.90
22288;DHT22;11312;51.464;6.968;2023-03-14T10:54:22;8.40;99.90
22288;DHT22;11312;51.464;6.968;2023-03-14T10:57:07;8.40;99.90
22288;DHT22;11312;51.464;6.968;2023-03-14T10:59:37;8.50;99.90
22288;DHT22;11312;51.464;6.968;2023-03-14T11:05:15;8.50;99.90
22288;DHT22;11312;51.464;6.968;2023-03-14T11:07:43;8.50;99.90
22288;DHT22;11312;51.464;6.968;2023-03-14T11:15:31;7.90;99.90
22288;DHT22;11312;51.464;6.968;2023-03-14T11:18:10;8.40;99.90
22288;DHT22;11312;51.464;6.968;2023-03-14T11:20:51;8.80;99.90
22288;DHT22;11312;51.464;6.968;2023-03-14T11:23:31;9.40;99.90
22288;DHT22;11312;51.464;6.968;2023-03-14T11:28:58;9.50;99.90
22288;DHT22;11312;51.464;6.968;2023-03-14T11:31:29;9.30;99.90
22288;DHT22;11312;51.464;6.968;2023-03-14T11:34:56;9.20;99.90
22288;DHT22;11312;51.464;6.968;2023-03-14T11:42:29;8.90;99.90
22288;DHT22;11312;51.464;6.968;2023-03-14T11:44:57;9.10;99.90
22288;DHT22;11312;51.464;6.968;2023-03-14T11:47:30;8.50;99.90
22288;DHT22;11312;51.464;6.968;2023-03-14T11:49:58;8.40;99.90
22288;DHT22;11312;51.464;6.968;2023-03-14T11:52:34;8.50;99.90
22288;DHT22;11312;51.464;6.968;2023-03-14T11:57:52;8.60;99.90
22288;DHT22;11312;51.464;6.968;2023-03-14T12:00:21;8.70;99.90
22288;DHT22;11312;51.464;6.968;2023-03-14T12:05:24;9.30;99.90
22288;DHT22;11312;51.464;6.968;2023-03-14T12:10:47;10.10;99.90
22288;DHT22;11312;51.464;6.968;2023-03-14T12:13:15;11.30;99.90
22288;DHT22;11312;51.464;6.968;2023-03-14T12:15:57;10.40;99.90
22288;DHT22;11312;51.464;6.968;2023-03-14T12:18:34;10.40;99.90
22288;DHT22;11312;51.464;6.968;2023-03-14T12:21:04;13.20;99.90
22288;DHT22;11312;51.464;6.968;2023-03-14T12:23:47;14.10;99.90
22288;DHT22;11312;51.464;6.968;2023-03-14T12:26:15;15.30;99.90
22288;DHT22;11312;51.464;6.968;2023-03-14T12:45:27;9.80;99.90
22288;DHT22;11312;51.464;6.968;2023-03-14T12:48:00;9.50;99.90
22288;DHT22;11312;51.464;6.968;2023-03-14T12:50:33;9.00;99.90
22288;DHT22;11312;51.464;6.968;2023-03-14T12:55:56;8.70;99.90
22288;DHT22;11312;51.464;6.968;2023-03-14T12:58:38;8.30;99.90
22288;DHT22;11312;51.464;6.968;2023-03-14T13:01:06;8.50;99.90
22288;DHT22;11312;51.464;6.968;2023-03-14T13:06:12;9.10;99.90
22288;DHT22;11312;51.464;6.968;2023-03-14T13:08:41;9.90;99.90
22288;DHT22;11312;51.464;6.968;2023-03-14T13:11:19;10.70;99.90
22288;DHT22;11312;51.464;6.968;2023-03-14T13:13:48;10.30;99.90
22288;DHT22;11312;51.464;6.968;2023-03-14T13:16:20;9.70;99.90
22288;DHT22;11312;51.464;6.968;2023-03-14T13:18:48;9.30;99.90
22288;DHT22;11312;51.464;6.968;2023-03-14T13:21:22;8.90;99.90
22288;DHT22;11312;51.464;6.968;2023-03-14T13:24:00;8.50;99.90
22288;DHT22;11312;51.464;6.968;2023-03-14T13:26:38;8.00;99.90
22288;DHT22;11312;51.464;6.968;2023-03-14T13:31:55;8.10;99.90
22288;DHT22;11312;51.464;6.968;2023-03-14T13:34:31;8.10;99.90
22288;DHT22;11312;51.464;6.968;2023-03-14T13:36:58;8.00;99.90
22288;DHT22;11312;51.464;6.968;2023-03-14T13:39:25;8.40;99.90
22288;DHT22;11312;51.464;6.968;2023-03-14T13:42:14;8.60;99.90
22288;DHT22;11312;51.464;6.968;2023-03-14T13:44:40;8.70;99.90
22288;DHT22;11312;51.464;6.968;2023-03-14T13:47:17;8.60;99.90
22288;DHT22;11312;51.464;6.968;2023-03-14T13:49:44;9.10;99.90
22288;DHT22;11312;51.464;6.968;2023-03-14T13:54:55;14.10;99.90
22288;DHT22;11312;51.464;6.968;2023-03-14T13:57:21;13.80;99.90
22288;DHT22;11312;51.464;6.968;2023-03-14T14:00:16;14.80;99.90
22288;DHT22;11312;51.464;6.968;2023-03-14T14:02:42;15.90;99.90
22288;DHT22;11312;51.464;6.968;2023-03-14T14:05:10;15.20;99.90
22288;DHT22;11312;51.464;6.968;2023-03-14T14:07:37;13.90;99.90
22288;DHT22;11312;51.464;6.968;2023-03-14T14:10:04;14.00;99.90
22288;DHT22;11312;51.464;6.968;2023-03-14T14:12:34;13.50;99.90
22288;DHT22;11312;51.464;6.968;2023-03-14T14:15:02;12.70;99.90
22288;DHT22;11312;51.464;6.968;2023-03-14T14:17:38;12.70;99.90
22288;DHT22;11312;51.464;6.968;2023-03-14T14:20:07;12.30;99.90
22288;DHT22;11312;51.464;6.968;2023-03-14T14:22:34;11.40;99.90
22288;DHT22;11312;51.464;6.968;2023-03-14T14:25:01;12.00;99.90
22288;DHT22;11312;51.464;6.968;2023-03-14T14:27:38;10.90;99.90
22288;DHT22;11312;51.464;6.968;2023-03-14T14:30:21;12.00;99.90
22288;DHT22;11312;51.464;6.968;2023-03-14T14:32:49;15.40;98.30
22288;DHT22;11312;51.464;6.968;2023-03-14T14:35:30;17.40;94.10
22288;DHT22;11312;51.464;6.968;2023-03-14T14:37:57;17.90;92.90
22288;DHT22;11312;51.464;6.968;2023-03-14T14:40:28;17.20;87.50
22288;DHT22;11312;51.464;6.968;2023-03-14T14:43:02;17.10;90.00
22288;DHT22;11312;51.464;6.968;2023-03-14T14:45:29;17.00;92.70
22288;DHT22;11312;51.464;6.968;2023-03-14T14:47:58;17.00;85.00
22288;DHT22;11312;51.464;6.968;2023-03-14T14:50:37;17.30;81.60
22288;DHT22;11312;51.464;6.968;2023-03-14T14:53:37;17.90;88.80
22288;DHT22;11312;51.464;6.968;2023-03-14T14:56:24;17.70;81.70
22288;DHT22;11312;51.464;6.968;2023-03-14T14:58:55;15.80;85.10
22288;DHT22;11312;51.464;6.968;2023-03-14T15:01:25;14.90;89.20
22288;DHT22;11312;51.464;6.968;2023-03-14T15:03:56;12.30;91.30
22288;DHT22;11312;51.464;6.968;2023-03-14T15:06:25;11.50;93.40
22288;DHT22;11312;51.464;6.968;2023-03-14T15:08:53;11.10;93.40
22288;DHT22;11312;51.464;6.968;2023-03-14T15:11:21;11.20;96.30
22288;DHT22;11312;51.464;6.968;2023-03-14T15:13:51;11.00;97.60
22288;DHT22;11312;51.464;6.968;2023-03-14T15:16:22;10.50;95.70
22288;DHT22;11312;51.464;6.968;2023-03-14T15:18:53;10.60;99.50
22288;DHT22;11312;51.464;6.968;2023-03-14T15:21:21;10.50;99.90
22288;DHT22;11312;51.464;6.968;2023-03-14T15:23:47;10.30;99.90
22288;DHT22;11312;51.464;6.968;2023-03-14T15:26:18;10.00;99.90
22288;DHT22;11312;51.464;6.968;2023-03-14T15:28:44;9.80;99.90
22288;DHT22;11312;51.464;6.968;2023-03-14T15:31:13;9.50;99.90
22288;DHT22;11312;51.464;6.968;2023-03-14T15:33:40;9.40;99.90
22288;DHT22;11312;51.464;6.968;2023-03-14T15:36:14;9.20;99.90
22288;DHT22;11312;51.464;6.968;2023-03-14T15:38:42;9.00;99.90
22288;DHT22;11312;51.464;6.968;2023-03-14T15:41:09;8.90;99.90
22288;DHT22;11312;51.464;6.968;2023-03-14T15:43:35;8.80;99.90
22288;DHT22;11312;51.464;6.968;2023-03-14T15:46:00;8.60;99.90
22288;DHT22;11312;51.464;6.968;2023-03-14T15:48:26;8.60;99.90
22288;DHT22;11312;51.464;6.968;2023-03-14T15:50:51;8.50;99.90
22288;DHT22;11312;51.464;6.968;2023-03-14T15:53:17;8.30;99.90
22288;DHT22;11312;51.464;6.968;2023-03-14T15:55:43;8.20;99.90
22288;DHT22;11312;51.464;6.968;2023-03-14T15:58:16;8.20;99.90
22288;DHT22;11312;51.464;6.968;2023-03-14T16:00:42;8.10;99.90
22288;DHT22;11312;51.464;6.968;2023-03-14T16:03:08;8.30;99.90
22288;DHT22;11312;51.464;6.968;2023-03-14T16:05:34;8.30;99.90
22288;DHT22;11312;51.464;6.968;2023-03-14T16:07:59;8.20;99.90
22288;DHT22;11312;51.464;6.968;2023-03-14T16:10:27;8.20;99.90
22288;DHT22;11312;51.464;6.968;2023-03-14T16:12:52;8.20;99.90
22288;DHT22;11312;51.464;6.968;2023-03-14T16:15:18;8.00;99.90
22288;DHT22;11312;51.464;6.968;2023-03-14T16:17:43;8.00;99.90
22288;DHT22;11312;51.464;6.968;2023-03-14T16:20:10;8.00;99.90
22288;DHT22;11312;51.464;6.968;2023-03-14T16:22:36;8.00;99.90
22288;DHT22;11312;51.464;6.968;2023-03-14T16:25:06;7.90;99.90
22288;DHT22;11312;51.464;6.968;2023-03-14T16:27:32;7.90;99.90
22288;DHT22;11312;51.464;6.968;2023-03-14T16:29:58;7.80;99.90
22288;DHT22;11312;51.464;6.968;2023-03-14T16:32:27;7.70;99.90
22288;DHT22;11312;51.464;6.968;2023-03-14T16:34:53;7.70;99.90
22288;DHT22;11312;51.464;6.968;2023-03-14T16:37:18;7.70;99.90
22288;DHT22;11312;51.464;6.968;2023-03-14T16:39:49;7.70;99.90
22288;DHT22;11312;51.464;6.968;2023-03-14T16:42:15;7.70;99.90
22288;DHT22;11312;51.464;6.968;2023-03-14T16:44:41;7.70;99.90
22288;DHT22;11312;51.464;6.968;2023-03-14T16:47:07;7.60;99.90
22288;DHT22;11312;51.464;6.968;2023-03-14T16:49:32;7.60;99.90